Time;durP1;ratioP1;P1;durP2;ratioP2;P2;SDS_P1;SDS_P2;PMS_P1;PMS_P2;Temp;Humidity;BMP_temperature;BMP_pressure;BME280_temperature;BME280_humidity;BME280_pressure;Samples;Min_cycle;Max_cycle;Signal;HPM_P1;HPM_P2
2021/10/26 00:00:54;;;;;;;;;;;12.60;99.90;;;;;;5022223;28;19906;-78
2021/10/26 00:03:20;;;;;;;;;;;12.50;99.90;;;;;;5018568;28;19914;-77
2021/10/26 00:05:45;;;;;;;;;;;12.60;99.90;;;;;;5023724;28;19965;-77
2021/10/26 00:08:12;;;;;;;;;;;12.60;99.90;;;;;;5008312;28;19929;-78
2021/10/26 00:10:37;;;;;;;;;;;12.50;99.90;;;;;;5038398;28;19936;-78
2021/10/26 00:13:03;;;;;;;;;;;12.50;99.90;;;;;;5007577;28;19913;-78
2021/10/26 00:15:28;;;;;;;;;;;12.50;99.90;;;;;;5024120;28;19918;-78
2021/10/26 00:17:54;;;;;;;;;;;12.60;99.90;;;;;;5006284;28;19913;-77
2021/10/26 00:20:20;;;;;;;;;;;12.50;99.90;;;;;;5005806;28;19909;-78
2021/10/26 00:22:45;;;;;;;;;;;12.60;99.90;;;;;;5001472;28;19972;-78
2021/10/26 00:25:11;;;;;;;;;;;12.60;99.90;;;;;;5018702;28;20009;-78
2021/10/26 00:27:36;;;;;;;;;;;12.70;99.90;;;;;;5004653;28;19914;-78
2021/10/26 00:30:03;;;;;;;;;;;12.60;99.90;;;;;;5004492;28;19949;-78
2021/10/26 00:32:29;;;;;;;;;;;12.60;99.90;;;;;;5003670;28;19918;-78
2021/10/26 00:34:54;;;;;;;;;;;12.60;99.90;;;;;;5004192;28;19914;-78
2021/10/26 00:37:20;;;;;;;;;;;12.70;99.90;;;;;;4999990;28;19913;-77
2021/10/26 00:39:46;;;;;;;;;;;12.60;99.90;;;;;;4997356;28;20274;-78
2021/10/26 00:42:12;;;;;;;;;;;12.60;99.90;;;;;;4997197;28;19949;-78
2021/10/26 00:44:38;;;;;;;;;;;12.70;99.90;;;;;;5015945;28;19964;-78
2021/10/26 00:47:04;;;;;;;;;;;12.70;99.90;;;;;;4998431;28;19923;-78
2021/10/26 00:49:31;;;;;;;;;;;12.70;99.90;;;;;;5017522;28;19913;-78
2021/10/26 00:51:57;;;;;;;;;;;12.60;99.90;;;;;;5019113;28;19916;-78
2021/10/26 00:54:23;;;;;;;;;;;12.70;99.90;;;;;;5018922;28;19909;-78
2021/10/26 00:56:49;;;;;;;;;;;12.70;99.90;;;;;;4999398;28;19957;-77
2021/10/26 00:59:15;;;;;;;;;;;12.70;99.90;;;;;;4998061;28;20286;-77
2021/10/26 01:01:41;;;;;;;;;;;12.70;99.90;;;;;;4997327;28;20354;-77
2021/10/26 01:04:07;;;;;;;;;;;12.70;99.90;;;;;;5014939;28;19960;-78
2021/10/26 01:06:33;;;;;;;;;;;12.80;99.90;;;;;;5013261;28;20290;-79
2021/10/26 01:08:59;;;;;;;;;;;12.70;99.90;;;;;;5014874;28;19913;-77
2021/10/26 01:11:25;;;;;;;;;;;12.80;99.90;;;;;;4996940;28;20071;-77
2021/10/26 01:13:51;;;;;;;;;;;12.80;99.90;;;;;;5006856;28;19914;-77
2021/10/26 01:16:16;;;;;;;;;;;12.70;99.90;;;;;;5000588;28;19918;-77
2021/10/26 01:18:42;;;;;;;;;;;12.70;99.90;;;;;;4996481;28;19913;-78
2021/10/26 01:21:08;;;;;;;;;;;12.70;99.90;;;;;;4997842;28;19951;-81
2021/10/26 01:23:33;;;;;;;;;;;12.80;99.90;;;;;;5014611;28;19914;-82
2021/10/26 01:26:00;;;;;;;;;;;12.80;99.90;;;;;;4996106;28;19928;-80
2021/10/26 01:28:26;;;;;;;;;;;12.80;99.90;;;;;;4996431;28;20362;-81
2021/10/26 01:30:52;;;;;;;;;;;12.80;99.90;;;;;;4996809;28;19920;-81
2021/10/26 01:33:17;;;;;;;;;;;12.70;99.90;;;;;;4997165;28;19913;-81
2021/10/26 01:35:43;;;;;;;;;;;12.70;99.90;;;;;;4996721;28;19916;-82
2021/10/26 01:38:09;;;;;;;;;;;12.80;99.90;;;;;;4996073;28;20004;-80
2021/10/26 01:40:35;;;;;;;;;;;12.70;99.90;;;;;;4996092;28;19960;-80
2021/10/26 01:43:01;;;;;;;;;;;12.70;99.90;;;;;;4996368;28;19920;-81
2021/10/26 01:45:27;;;;;;;;;;;12.70;99.90;;;;;;4994530;28;19972;-80
2021/10/26 01:47:52;;;;;;;;;;;12.80;99.90;;;;;;4977425;28;20008;-80
2021/10/26 01:50:18;;;;;;;;;;;12.70;99.90;;;;;;4977934;28;19910;-80
2021/10/26 01:52:45;;;;;;;;;;;12.80;99.90;;;;;;5006908;28;20286;-80
2021/10/26 01:55:11;;;;;;;;;;;12.80;99.90;;;;;;4994590;28;19910;-80
2021/10/26 01:57:37;;;;;;;;;;;12.80;99.90;;;;;;5013294;28;19910;-80
2021/10/26 02:00:07;;;;;;;;;;;12.80;99.90;;;;;;4996139;28;19916;-80
2021/10/26 02:02:33;;;;;;;;;;;12.80;99.90;;;;;;4995810;28;20333;-79
2021/10/26 02:04:59;;;;;;;;;;;12.90;99.90;;;;;;4995476;28;19910;-79
2021/10/26 02:07:24;;;;;;;;;;;12.80;99.90;;;;;;5013735;28;19910;-79
2021/10/26 02:09:50;;;;;;;;;;;12.80;99.90;;;;;;4995769;28;19920;-79
2021/10/26 02:12:15;;;;;;;;;;;12.80;99.90;;;;;;5017049;28;20000;-80
2021/10/26 02:14:41;;;;;;;;;;;12.70;99.90;;;;;;5018072;28;19910;-79
2021/10/26 02:17:07;;;;;;;;;;;12.70;99.90;;;;;;5017493;28;19937;-79
2021/10/26 02:19:33;;;;;;;;;;;12.60;99.90;;;;;;5000199;28;19953;-79
2021/10/26 02:21:58;;;;;;;;;;;12.60;99.90;;;;;;4999567;28;19909;-79
2021/10/26 02:24:24;;;;;;;;;;;12.60;99.90;;;;;;5000184;28;19910;-79
2021/10/26 02:26:49;;;;;;;;;;;12.50;99.90;;;;;;4999493;28;19925;-79
2021/10/26 02:29:15;;;;;;;;;;;12.50;99.90;;;;;;5017764;28;19964;-77
2021/10/26 02:31:40;;;;;;;;;;;12.50;99.90;;;;;;5000700;28;19925;-79
2021/10/26 02:34:07;;;;;;;;;;;12.50;99.90;;;;;;4999730;28;19916;-80
2021/10/26 02:36:33;;;;;;;;;;;12.40;99.90;;;;;;4999254;28;19913;-79
2021/10/26 02:38:58;;;;;;;;;;;12.30;99.90;;;;;;5000551;28;19916;-80
2021/10/26 02:41:24;;;;;;;;;;;12.30;99.90;;;;;;5000935;28;19915;-79
2021/10/26 02:43:49;;;;;;;;;;;12.30;99.90;;;;;;5017510;28;19932;-78
2021/10/26 02:46:15;;;;;;;;;;;12.30;99.90;;;;;;5000010;28;19971;-79
2021/10/26 02:48:42;;;;;;;;;;;12.30;99.90;;;;;;5017327;28;20314;-79
2021/10/26 02:51:08;;;;;;;;;;;12.20;99.90;;;;;;4999829;28;19944;-78
2021/10/26 02:53:33;;;;;;;;;;;12.20;99.90;;;;;;5017207;28;19948;-79
2021/10/26 02:55:59;;;;;;;;;;;12.20;99.90;;;;;;5017343;28;19917;-78
2021/10/26 02:58:24;;;;;;;;;;;12.20;99.90;;;;;;4999391;28;20398;-79
2021/10/26 03:00:50;;;;;;;;;;;12.20;99.90;;;;;;4999513;28;19952;-79
2021/10/26 03:03:15;;;;;;;;;;;12.20;99.90;;;;;;5017056;28;19917;-78
2021/10/26 03:05:41;;;;;;;;;;;12.20;99.90;;;;;;5016558;28;19920;-79
2021/10/26 03:08:06;;;;;;;;;;;12.20;99.90;;;;;;4999188;28;19941;-78
2021/10/26 03:10:32;;;;;;;;;;;12.20;99.90;;;;;;4999386;28;19964;-79
2021/10/26 03:12:58;;;;;;;;;;;12.20;99.90;;;;;;5017124;28;19920;-79
2021/10/26 03:15:24;;;;;;;;;;;12.20;99.90;;;;;;4998679;28;19917;-78
2021/10/26 03:17:49;;;;;;;;;;;12.20;99.90;;;;;;5017070;28;20366;-78
2021/10/26 03:20:15;;;;;;;;;;;12.20;99.90;;;;;;4999052;28;19964;-79
2021/10/26 03:22:40;;;;;;;;;;;12.20;99.90;;;;;;5016796;28;20361;-78
2021/10/26 03:25:07;;;;;;;;;;;12.20;99.90;;;;;;4998131;28;20321;-78
2021/10/26 03:27:34;;;;;;;;;;;12.20;99.90;;;;;;4998296;28;19913;-78
2021/10/26 03:30:00;;;;;;;;;;;12.20;99.90;;;;;;4997787;28;20337;-78
2021/10/26 03:32:26;;;;;;;;;;;12.10;99.90;;;;;;4998280;28;19917;-78
2021/10/26 03:34:52;;;;;;;;;;;12.10;99.90;;;;;;5015790;28;19913;-79
2021/10/26 03:37:17;;;;;;;;;;;12.10;99.90;;;;;;5016123;28;20001;-79
2021/10/26 03:39:44;;;;;;;;;;;12.20;99.90;;;;;;4994774;28;20448;-79
2021/10/26 03:42:10;;;;;;;;;;;12.10;99.90;;;;;;5008793;28;20294;-78
2021/10/26 03:44:36;;;;;;;;;;;12.10;99.90;;;;;;4998623;28;19917;-79
2021/10/26 03:47:01;;;;;;;;;;;12.10;99.90;;;;;;4997941;28;19913;-78
2021/10/26 03:49:27;;;;;;;;;;;12.10;99.90;;;;;;4998121;28;19916;-78
2021/10/26 03:51:53;;;;;;;;;;;12.10;99.90;;;;;;5015894;28;19914;-78
2021/10/26 03:54:18;;;;;;;;;;;12.00;99.90;;;;;;4998253;28;19914;-79
2021/10/26 03:56:44;;;;;;;;;;;12.00;99.90;;;;;;4998227;28;19910;-78
2021/10/26 03:59:10;;;;;;;;;;;12.00;99.90;;;;;;5015563;28;20400;-77
2021/10/26 04:01:36;;;;;;;;;;;12.00;99.90;;;;;;5012614;28;19963;-77
2021/10/26 04:04:02;;;;;;;;;;;11.90;99.90;;;;;;4979401;28;20397;-79
2021/10/26 04:06:29;;;;;;;;;;;11.90;99.90;;;;;;4997824;28;19917;-78
2021/10/26 04:08:57;;;;;;;;;;;11.90;99.90;;;;;;4997670;28;19910;-78
2021/10/26 04:11:24;;;;;;;;;;;11.90;99.90;;;;;;4997157;28;20390;-78
2021/10/26 04:13:50;;;;;;;;;;;11.90;99.90;;;;;;4998147;28;20350;-78
2021/10/26 04:16:16;;;;;;;;;;;11.80;99.90;;;;;;5015348;28;19921;-78
2021/10/26 04:18:41;;;;;;;;;;;11.90;99.90;;;;;;5015589;28;20278;-78
2021/10/26 04:21:08;;;;;;;;;;;11.80;99.90;;;;;;5011886;28;19920;-77
2021/10/26 04:23:34;;;;;;;;;;;11.90;99.90;;;;;;4998011;28;20359;-78
2021/10/26 04:26:00;;;;;;;;;;;11.90;99.90;;;;;;4996882;28;20337;-78
2021/10/26 04:28:26;;;;;;;;;;;11.80;99.90;;;;;;4997597;28;19940;-78
2021/10/26 04:30:51;;;;;;;;;;;11.80;99.90;;;;;;5014340;28;19913;-78
2021/10/26 04:33:17;;;;;;;;;;;11.80;99.90;;;;;;4993669;28;20325;-77
2021/10/26 04:35:42;;;;;;;;;;;11.80;99.90;;;;;;5014700;28;20282;-77
2021/10/26 04:38:08;;;;;;;;;;;11.70;99.90;;;;;;4996655;28;19920;-77
2021/10/26 04:40:34;;;;;;;;;;;11.80;99.90;;;;;;4995690;28;20025;-77
2021/10/26 04:43:00;;;;;;;;;;;11.70;99.90;;;;;;4996883;28;19914;-79
2021/10/26 04:45:26;;;;;;;;;;;11.70;99.90;;;;;;5014589;28;19926;-78
2021/10/26 04:47:52;;;;;;;;;;;11.70;99.90;;;;;;4997126;28;19956;-78
2021/10/26 04:50:18;;;;;;;;;;;11.80;99.90;;;;;;5012916;28;20437;-79
2021/10/26 04:52:43;;;;;;;;;;;11.80;99.90;;;;;;5008545;28;20370;-80
2021/10/26 04:55:09;;;;;;;;;;;11.70;99.90;;;;;;5014974;28;20004;-77
2021/10/26 04:57:35;;;;;;;;;;;11.80;99.90;;;;;;4982696;28;20390;-78
2021/10/26 05:00:01;;;;;;;;;;;11.80;99.90;;;;;;4992236;28;20023;-78
2021/10/26 05:02:26;;;;;;;;;;;11.80;99.90;;;;;;5014831;28;19917;-78
2021/10/26 05:04:52;;;;;;;;;;;11.80;99.90;;;;;;5015006;28;20277;-77
2021/10/26 05:07:17;;;;;;;;;;;11.80;99.90;;;;;;4996750;28;19917;-78
2021/10/26 05:09:43;;;;;;;;;;;11.80;99.90;;;;;;4997132;28;19958;-78
2021/10/26 05:12:09;;;;;;;;;;;11.80;99.90;;;;;;5014449;28;19992;-79
2021/10/26 05:14:34;;;;;;;;;;;11.80;99.90;;;;;;4996944;28;20413;-78
2021/10/26 05:17:02;;;;;;;;;;;11.80;99.90;;;;;;5014454;28;19918;-79
2021/10/26 05:19:28;;;;;;;;;;;11.80;99.90;;;;;;4996711;28;19910;-79
2021/10/26 05:21:54;;;;;;;;;;;11.80;99.90;;;;;;4997602;28;19913;-79
2021/10/26 05:24:20;;;;;;;;;;;11.80;99.90;;;;;;4997241;28;19967;-79
2021/10/26 05:26:46;;;;;;;;;;;11.80;99.90;;;;;;5014302;28;19917;-79
2021/10/26 05:29:15;;;;;;;;;;;11.80;99.90;;;;;;4997041;28;19936;-79
2021/10/26 05:31:41;;;;;;;;;;;11.70;99.90;;;;;;5014366;28;20362;-80
2021/10/26 05:34:08;;;;;;;;;;;11.70;99.90;;;;;;4994898;28;20401;-78
2021/10/26 05:36:34;;;;;;;;;;;11.70;99.90;;;;;;4996702;28;19917;-79
2021/10/26 05:39:00;;;;;;;;;;;11.70;99.90;;;;;;4996609;28;19913;-78
2021/10/26 05:41:27;;;;;;;;;;;11.70;99.90;;;;;;4995818;28;19913;-79
2021/10/26 05:43:52;;;;;;;;;;;11.70;99.90;;;;;;4997020;28;19968;-78
2021/10/26 05:46:18;;;;;;;;;;;11.70;99.90;;;;;;4995718;28;19960;-79
2021/10/26 05:48:44;;;;;;;;;;;11.70;99.90;;;;;;5014432;28;20282;-78
2021/10/26 05:51:09;;;;;;;;;;;11.60;99.90;;;;;;5014107;28;19910;-79
2021/10/26 05:53:35;;;;;;;;;;;11.50;99.90;;;;;;4988185;28;20008;-78
2021/10/26 05:56:01;;;;;;;;;;;11.50;99.90;;;;;;5013798;28;19921;-78
2021/10/26 05:58:27;;;;;;;;;;;11.40;99.90;;;;;;5011919;28;19917;-79
2021/10/26 06:00:52;;;;;;;;;;;11.40;99.90;;;;;;4991026;28;19946;-79
2021/10/26 06:03:18;;;;;;;;;;;11.40;99.90;;;;;;4986337;28;20278;-79
2021/10/26 06:05:43;;;;;;;;;;;11.40;99.90;;;;;;5013927;28;20257;-78
2021/10/26 06:08:09;;;;;;;;;;;11.40;99.90;;;;;;4996339;28;19916;-78
2021/10/26 06:10:43;;;;;;;;;;;11.40;99.90;;;;;;5014534;28;19940;-78
2021/10/26 06:13:12;;;;;;;;;;;11.40;99.90;;;;;;4996257;28;20221;-79
2021/10/26 06:15:38;;;;;;;;;;;11.40;99.90;;;;;;4996020;28;19940;-78
2021/10/26 06:18:03;;;;;;;;;;;11.30;99.90;;;;;;4993138;28;20274;-79
2021/10/26 06:20:29;;;;;;;;;;;11.30;99.90;;;;;;4999187;28;19933;-79
2021/10/26 06:22:54;;;;;;;;;;;11.30;99.90;;;;;;5013413;28;20438;-78
2021/10/26 06:25:20;;;;;;;;;;;11.40;99.90;;;;;;5013744;28;19909;-79
2021/10/26 06:27:45;;;;;;;;;;;11.30;99.90;;;;;;5013648;28;19916;-77
2021/10/26 06:30:11;;;;;;;;;;;11.30;99.90;;;;;;4996096;28;19913;-79
2021/10/26 06:32:40;;;;;;;;;;;11.30;99.90;;;;;;4996028;28;19909;-78
2021/10/26 06:35:05;;;;;;;;;;;11.30;99.90;;;;;;5010868;28;20286;-78
2021/10/26 06:37:34;;;;;;;;;;;11.30;99.90;;;;;;5014092;28;19921;-77
2021/10/26 06:40:00;;;;;;;;;;;11.30;99.90;;;;;;4987839;28;19920;-78
2021/10/26 06:42:25;;;;;;;;;;;11.30;99.90;;;;;;4987770;28;20425;-79
2021/10/26 06:44:51;;;;;;;;;;;11.30;99.90;;;;;;5013935;28;19960;-79
2021/10/26 06:47:18;;;;;;;;;;;11.30;99.90;;;;;;5013446;28;19960;-79
2021/10/26 06:49:45;;;;;;;;;;;11.20;99.90;;;;;;5013152;28;20356;-79
2021/10/26 06:52:11;;;;;;;;;;;11.20;99.90;;;;;;4994913;28;19920;-79
2021/10/26 06:54:36;;;;;;;;;;;11.20;99.90;;;;;;4995778;28;19910;-78
2021/10/26 06:57:03;;;;;;;;;;;11.30;99.90;;;;;;4996746;28;19964;-79
2021/10/26 06:59:28;;;;;;;;;;;11.20;99.90;;;;;;5010399;28;20298;-79
2021/10/26 07:01:54;;;;;;;;;;;11.30;99.90;;;;;;4999434;28;20051;-78
2021/10/26 07:04:19;;;;;;;;;;;11.20;99.90;;;;;;4998870;28;20008;-78
2021/10/26 07:06:45;;;;;;;;;;;11.20;99.90;;;;;;4998949;28;20412;-78
2021/10/26 07:09:10;;;;;;;;;;;11.20;99.90;;;;;;4999525;28;19909;-78
2021/10/26 07:11:36;;;;;;;;;;;11.30;99.90;;;;;;5016518;28;19920;-78
2021/10/26 07:14:03;;;;;;;;;;;11.30;99.90;;;;;;5016705;28;19909;-77
2021/10/26 07:16:28;;;;;;;;;;;11.40;99.90;;;;;;4998166;28;20433;-79
2021/10/26 07:18:54;;;;;;;;;;;11.40;99.90;;;;;;4999156;28;19961;-78
2021/10/26 07:21:20;;;;;;;;;;;11.40;99.90;;;;;;5016236;28;19948;-78
2021/10/26 07:23:45;;;;;;;;;;;11.50;99.90;;;;;;4993388;28;19918;-78
2021/10/26 07:26:11;;;;;;;;;;;11.50;99.90;;;;;;4997903;28;20389;-78
2021/10/26 07:28:36;;;;;;;;;;;11.60;99.90;;;;;;5016436;28;19910;-78
2021/10/26 07:31:02;;;;;;;;;;;11.60;99.90;;;;;;4998629;28;19923;-76
2021/10/26 07:33:32;;;;;;;;;;;11.60;99.90;;;;;;4998376;28;19914;-79
2021/10/26 07:35:58;;;;;;;;;;;11.60;99.90;;;;;;4998033;28;19971;-79
2021/10/26 07:38:28;;;;;;;;;;;11.70;99.90;;;;;;4998833;28;19909;-79
2021/10/26 07:40:56;;;;;;;;;;;11.80;99.90;;;;;;5016245;28;19920;-78
2021/10/26 07:43:22;;;;;;;;;;;11.90;99.90;;;;;;4997103;28;19914;-78
2021/10/26 07:45:47;;;;;;;;;;;11.90;99.90;;;;;;4998493;28;20289;-78
2021/10/26 07:48:13;;;;;;;;;;;12.00;99.90;;;;;;5014765;28;19964;-78
2021/10/26 07:50:39;;;;;;;;;;;12.10;99.90;;;;;;5016021;28;20328;-78
2021/10/26 07:53:05;;;;;;;;;;;12.20;99.90;;;;;;4993573;28;19918;-80
2021/10/26 07:55:30;;;;;;;;;;;12.40;99.90;;;;;;4998890;28;19941;-78
2021/10/26 07:57:56;;;;;;;;;;;12.50;99.90;;;;;;5017586;28;19917;-78
2021/10/26 08:00:23;;;;;;;;;;;12.60;99.90;;;;;;5017377;28;19916;-80
2021/10/26 08:02:50;;;;;;;;;;;12.80;99.90;;;;;;4998848;28;19910;-79
2021/10/26 08:05:16;;;;;;;;;;;12.90;99.90;;;;;;4999021;28;19914;-80
2021/10/26 08:07:41;;;;;;;;;;;13.00;99.90;;;;;;5016829;28;19909;-79
2021/10/26 08:10:07;;;;;;;;;;;13.00;99.90;;;;;;4998048;28;19913;-79
2021/10/26 08:12:32;;;;;;;;;;;13.00;99.90;;;;;;5016673;28;19914;-80
2021/10/26 08:14:58;;;;;;;;;;;13.00;99.90;;;;;;4999051;28;19910;-80
2021/10/26 08:17:24;;;;;;;;;;;13.00;99.90;;;;;;4998967;28;19918;-79
2021/10/26 08:19:49;;;;;;;;;;;12.90;99.90;;;;;;4998362;28;19920;-80
2021/10/26 08:22:17;;;;;;;;;;;12.90;99.90;;;;;;4995810;28;20374;-79
2021/10/26 08:24:51;;;;;;;;;;;12.90;99.90;;;;;;5015967;28;19913;-81
2021/10/26 08:27:18;;;;;;;;;;;12.80;99.90;;;;;;4999503;28;19929;-82
2021/10/26 08:37:29;;;;;;;;;;;12.90;99.90;;;;;;5010547;28;19920;-80
2021/10/26 08:39:54;;;;;;;;;;;12.90;99.90;;;;;;4998555;28;19921;-80
2021/10/26 08:42:21;;;;;;;;;;;12.90;99.90;;;;;;5016764;28;19920;-81
2021/10/26 08:44:47;;;;;;;;;;;12.90;99.90;;;;;;5013504;28;19953;-81
2021/10/26 08:47:15;;;;;;;;;;;12.90;99.90;;;;;;4998415;28;19963;-80
2021/10/26 08:49:42;;;;;;;;;;;12.90;99.90;;;;;;5015847;28;19913;-81
2021/10/26 08:52:08;;;;;;;;;;;13.00;99.90;;;;;;4998702;28;19914;-81
2021/10/26 08:54:33;;;;;;;;;;;13.00;99.90;;;;;;4998924;28;19920;-81
2021/10/26 08:56:59;;;;;;;;;;;13.00;99.90;;;;;;4998342;28;19913;-81
2021/10/26 08:59:25;;;;;;;;;;;13.10;99.90;;;;;;4999383;28;19918;-81
2021/10/26 09:01:52;;;;;;;;;;;13.10;99.90;;;;;;5015529;28;19914;-81
2021/10/26 09:04:18;;;;;;;;;;;13.10;99.90;;;;;;5017022;28;19952;-80
2021/10/26 09:06:48;;;;;;;;;;;13.10;99.90;;;;;;4999457;28;20385;-80
2021/10/26 09:09:16;;;;;;;;;;;13.20;99.90;;;;;;4997772;28;20393;-82
2021/10/26 09:17:28;;;;;;;;;;;13.40;99.90;;;;;;5015408;28;19925;-81
2021/10/26 09:19:54;;;;;;;;;;;13.40;99.90;;;;;;5000460;28;19913;-79
2021/10/26 09:22:20;;;;;;;;;;;13.30;99.90;;;;;;5013253;28;19918;-79
2021/10/26 09:24:57;;;;;;;;;;;13.40;99.90;;;;;;5014747;28;20284;-79
2021/10/26 09:27:23;;;;;;;;;;;13.50;99.90;;;;;;4997203;28;20337;-80
2021/10/26 09:29:49;;;;;;;;;;;13.50;99.90;;;;;;4997500;28;20278;-78
2021/10/26 09:32:22;;;;;;;;;;;13.50;99.90;;;;;;4998225;28;20386;-79
2021/10/26 09:34:49;;;;;;;;;;;13.50;99.90;;;;;;4997290;28;19918;-80
2021/10/26 09:37:15;;;;;;;;;;;13.50;99.90;;;;;;5014916;28;19918;-81
2021/10/26 09:39:51;;;;;;;;;;;13.40;99.90;;;;;;5014572;28;19920;-80
2021/10/26 09:42:17;;;;;;;;;;;13.50;99.90;;;;;;4989644;28;19913;-80
2021/10/26 09:44:44;;;;;;;;;;;13.50;99.90;;;;;;5015343;28;19999;-81
2021/10/26 09:47:23;;;;;;;;;;;13.60;99.90;;;;;;5014937;28;20294;-80
2021/10/26 09:49:56;;;;;;;;;;;13.60;99.90;;;;;;4993575;28;19921;-84
2021/10/26 09:52:23;;;;;;;;;;;13.60;99.90;;;;;;5014711;28;19913;-80
2021/10/26 09:54:59;;;;;;;;;;;13.60;99.90;;;;;;4998205;28;20353;-82
2021/10/26 09:57:31;;;;;;;;;;;13.60;99.90;;;;;;5015262;28;20343;-79
2021/10/26 09:59:56;;;;;;;;;;;13.70;99.90;;;;;;5011267;28;19925;-79
2021/10/26 10:02:23;;;;;;;;;;;13.60;99.90;;;;;;4997038;28;19913;-78
2021/10/26 10:04:52;;;;;;;;;;;13.60;99.90;;;;;;5013877;28;20012;-78
2021/10/26 10:07:30;;;;;;;;;;;13.60;99.90;;;;;;4995821;28;19924;-81
2021/10/26 10:09:57;;;;;;;;;;;13.60;99.90;;;;;;4998116;28;20004;-80
2021/10/26 10:12:26;;;;;;;;;;;13.60;99.90;;;;;;5014627;28;20020;-81
2021/10/26 10:14:53;;;;;;;;;;;13.60;99.90;;;;;;4999291;28;19917;-80
2021/10/26 10:17:20;;;;;;;;;;;13.70;99.90;;;;;;4997112;28;19941;-80
2021/10/26 10:19:46;;;;;;;;;;;13.70;99.90;;;;;;4998435;28;20008;-82
2021/10/26 10:22:12;;;;;;;;;;;13.60;99.90;;;;;;4996960;28;19961;-81
2021/10/26 10:24:39;;;;;;;;;;;13.50;99.90;;;;;;4996439;28;19914;-81
2021/10/26 10:27:06;;;;;;;;;;;13.50;99.90;;;;;;4998303;28;20012;-81
2021/10/26 10:29:33;;;;;;;;;;;13.50;99.90;;;;;;4997905;28;20292;-86
2021/10/26 10:31:58;;;;;;;;;;;13.40;99.90;;;;;;4999129;28;19913;-85
2021/10/26 10:34:24;;;;;;;;;;;13.30;99.90;;;;;;5000948;28;20020;-86
2021/10/26 10:36:52;;;;;;;;;;;13.30;99.90;;;;;;5002049;28;19914;-85
2021/10/26 10:39:22;;;;;;;;;;;13.20;99.90;;;;;;5021041;28;19913;-84
2021/10/26 10:41:48;;;;;;;;;;;13.20;99.90;;;;;;5002482;28;20001;-86
2021/10/26 10:44:20;;;;;;;;;;;13.10;99.90;;;;;;5003604;28;19953;-86
2021/10/26 10:46:47;;;;;;;;;;;13.20;99.90;;;;;;5021905;28;19975;-82
2021/10/26 10:49:18;;;;;;;;;;;13.20;99.90;;;;;;5020007;28;20012;-79
2021/10/26 10:51:53;;;;;;;;;;;13.20;99.90;;;;;;5016738;28;20282;-79
2021/10/26 10:54:34;;;;;;;;;;;13.20;99.90;;;;;;5004066;28;20004;-85
2021/10/26 10:57:19;;;;;;;;;;;13.20;99.90;;;;;;5000411;28;19921;-84
2021/10/26 10:59:45;;;;;;;;;;;13.30;99.90;;;;;;5019398;28;20289;-84
2021/10/26 11:02:19;;;;;;;;;;;13.20;99.90;;;;;;5018111;28;19921;-85
2021/10/26 11:04:44;;;;;;;;;;;13.20;99.90;;;;;;5001728;28;19921;-83
2021/10/26 11:07:10;;;;;;;;;;;13.30;99.90;;;;;;5001654;28;19917;-87
2021/10/26 11:09:37;;;;;;;;;;;13.40;99.90;;;;;;5024614;28;20362;-85
2021/10/26 11:12:05;;;;;;;;;;;13.40;99.90;;;;;;5003876;28;20448;-85
2021/10/26 11:14:41;;;;;;;;;;;13.30;99.90;;;;;;5005708;28;19913;-90
2021/10/26 11:17:25;;;;;;;;;;;13.30;99.90;;;;;;5000243;28;20281;-85
2021/10/26 11:19:51;;;;;;;;;;;13.40;99.90;;;;;;4998924;28;19920;-82
2021/10/26 11:22:35;;;;;;;;;;;13.50;99.90;;;;;;5000166;28;19913;-82
2021/10/26 11:25:20;;;;;;;;;;;13.60;99.90;;;;;;5000412;28;19964;-83
2021/10/26 11:27:45;;;;;;;;;;;13.80;99.90;;;;;;5018136;28;19926;-82
2021/10/26 11:30:30;;;;;;;;;;;13.90;99.90;;;;;;5000724;28;20461;-81
2021/10/26 11:33:14;;;;;;;;;;;13.90;99.90;;;;;;5000311;28;19917;-82
2021/10/26 11:35:46;;;;;;;;;;;14.00;99.90;;;;;;5018205;28;20384;-81
2021/10/26 11:38:12;;;;;;;;;;;14.10;99.90;;;;;;5004741;28;19920;-82
2021/10/26 11:40:48;;;;;;;;;;;14.10;99.90;;;;;;5007514;28;19913;-82
2021/10/26 11:43:14;;;;;;;;;;;14.10;99.90;;;;;;5025576;28;19913;-81
2021/10/26 11:45:51;;;;;;;;;;;14.20;99.90;;;;;;5025186;28;19917;-81
2021/10/26 11:48:35;;;;;;;;;;;14.10;99.90;;;;;;5026371;28;19914;-81
2021/10/26 11:51:37;;;;;;;;;;;14.00;99.90;;;;;;5008019;28;19913;-81
2021/10/26 11:54:09;;;;;;;;;;;14.00;99.90;;;;;;4958578;28;20008;-79
2021/10/26 11:56:36;;;;;;;;;;;14.00;99.90;;;;;;5008971;28;19918;-80
2021/10/26 11:59:01;;;;;;;;;;;14.00;99.90;;;;;;5026456;28;19914;-84
2021/10/26 12:01:36;;;;;;;;;;;14.00;99.90;;;;;;5010490;28;19944;-81
2021/10/26 12:04:04;;;;;;;;;;;14.00;99.90;;;;;;5033905;28;19918;-81
2021/10/26 12:06:34;;;;;;;;;;;14.10;99.90;;;;;;5016492;28;19933;-81
2021/10/26 12:09:10;;;;;;;;;;;14.10;99.90;;;;;;5023318;28;19917;-82
2021/10/26 12:11:36;;;;;;;;;;;14.10;99.90;;;;;;5023421;28;19924;-82
2021/10/26 12:14:20;;;;;;;;;;;14.10;99.90;;;;;;5021978;28;19905;-82
2021/10/26 12:17:04;;;;;;;;;;;14.20;99.90;;;;;;5040003;28;19960;-81
2021/10/26 12:19:30;;;;;;;;;;;14.10;99.90;;;;;;5022541;28;19933;-81
2021/10/26 12:21:56;;;;;;;;;;;14.20;99.90;;;;;;5032129;28;19968;-83
2021/10/26 12:24:25;;;;;;;;;;;14.20;99.90;;;;;;5006441;28;19913;-82
2021/10/26 12:27:03;;;;;;;;;;;14.30;99.90;;;;;;5021921;28;19921;-82
2021/10/26 12:29:31;;;;;;;;;;;14.40;99.90;;;;;;5003691;28;19913;-81
2021/10/26 12:31:57;;;;;;;;;;;14.40;99.90;;;;;;5021671;28;19917;-83
2021/10/26 12:34:23;;;;;;;;;;;14.50;99.90;;;;;;5002556;28;19921;-82
2021/10/26 12:36:49;;;;;;;;;;;14.50;99.90;;;;;;5003873;28;19913;-81
2021/10/26 12:39:22;;;;;;;;;;;14.60;99.90;;;;;;5003802;28;19917;-81
2021/10/26 12:41:47;;;;;;;;;;;14.60;99.90;;;;;;5023563;28;19917;-82
2021/10/26 12:44:18;;;;;;;;;;;14.70;99.90;;;;;;5005446;28;19913;-81
2021/10/26 12:46:43;;;;;;;;;;;14.70;99.90;;;;;;5008522;28;19917;-81
2021/10/26 12:49:15;;;;;;;;;;;14.70;99.90;;;;;;5025144;28;19963;-83
2021/10/26 12:51:42;;;;;;;;;;;14.80;99.90;;;;;;5009813;28;19913;-79
2021/10/26 12:54:11;;;;;;;;;;;14.70;99.90;;;;;;5014214;28;19983;-81
2021/10/26 12:56:43;;;;;;;;;;;14.70;99.90;;;;;;5019457;28;19923;-80
2021/10/26 12:59:08;;;;;;;;;;;14.70;99.90;;;;;;5020674;28;19924;-79
2021/10/26 13:01:38;;;;;;;;;;;14.90;99.90;;;;;;5021328;28;19937;-80
2021/10/26 13:04:10;;;;;;;;;;;14.90;99.90;;;;;;5038431;28;19918;-81
2021/10/26 13:06:39;;;;;;;;;;;14.80;99.90;;;;;;5020272;28;19929;-81
2021/10/26 13:09:06;;;;;;;;;;;14.80;99.90;;;;;;5019971;28;19997;-79
2021/10/26 13:11:34;;;;;;;;;;;14.70;99.90;;;;;;5018500;28;19931;-80
2021/10/26 13:13:59;;;;;;;;;;;14.70;99.90;;;;;;5026255;28;19936;-80
2021/10/26 13:16:32;;;;;;;;;;;14.70;99.90;;;;;;5001305;28;19969;-79
2021/10/26 13:19:10;;;;;;;;;;;14.60;99.90;;;;;;5019155;28;20000;-80
2021/10/26 13:21:37;;;;;;;;;;;14.60;99.90;;;;;;5017269;28;19920;-83
2021/10/26 13:24:03;;;;;;;;;;;14.50;99.90;;;;;;4999354;28;19913;-81
2021/10/26 13:26:28;;;;;;;;;;;14.50;99.90;;;;;;5016612;28;20336;-81
2021/10/26 13:28:54;;;;;;;;;;;14.50;99.90;;;;;;5017056;28;19991;-82
2021/10/26 13:31:20;;;;;;;;;;;14.50;99.90;;;;;;5016065;28;19921;-82
2021/10/26 13:33:46;;;;;;;;;;;14.60;99.90;;;;;;4999319;28;19976;-81
2021/10/26 13:36:13;;;;;;;;;;;14.80;99.90;;;;;;4998071;28;19914;-81
2021/10/26 13:38:39;;;;;;;;;;;15.00;99.90;;;;;;4997465;28;19920;-80
2021/10/26 13:41:06;;;;;;;;;;;15.20;99.90;;;;;;5014893;28;19924;-80
2021/10/26 13:43:33;;;;;;;;;;;15.30;99.90;;;;;;4998231;28;19913;-85
2021/10/26 13:46:00;;;;;;;;;;;15.30;99.90;;;;;;4999354;28;19976;-81
2021/10/26 13:48:26;;;;;;;;;;;15.30;99.90;;;;;;4998335;28;19914;-80
2021/10/26 13:50:52;;;;;;;;;;;15.40;99.90;;;;;;5014888;28;20394;-80
2021/10/26 13:53:19;;;;;;;;;;;15.50;99.90;;;;;;5014725;28;19920;-79
2021/10/26 13:55:45;;;;;;;;;;;15.50;99.90;;;;;;5013770;28;20362;-80
2021/10/26 13:58:11;;;;;;;;;;;15.50;99.90;;;;;;4997002;28;19968;-80
2021/10/26 14:00:39;;;;;;;;;;;15.50;99.90;;;;;;4996744;28;19917;-80
2021/10/26 14:03:06;;;;;;;;;;;15.40;99.90;;;;;;4996712;28;19917;-80
2021/10/26 14:05:31;;;;;;;;;;;15.30;99.90;;;;;;5014651;28;19920;-81
2021/10/26 14:07:58;;;;;;;;;;;15.20;99.90;;;;;;4995466;28;19913;-81
2021/10/26 14:10:23;;;;;;;;;;;15.20;99.90;;;;;;5014475;28;19914;-80
2021/10/26 14:12:49;;;;;;;;;;;15.10;99.90;;;;;;5015136;28;19914;-79
2021/10/26 14:15:15;;;;;;;;;;;15.10;99.90;;;;;;5013908;28;19917;-81
2021/10/26 14:17:41;;;;;;;;;;;15.10;99.90;;;;;;4997367;28;19921;-81
2021/10/26 14:20:10;;;;;;;;;;;15.00;99.90;;;;;;4996611;28;19988;-80
2021/10/26 14:22:37;;;;;;;;;;;15.10;99.90;;;;;;4998820;28;19914;-80
2021/10/26 14:25:03;;;;;;;;;;;15.10;99.90;;;;;;4998264;28;19920;-81
2021/10/26 14:27:30;;;;;;;;;;;15.10;99.90;;;;;;4998594;28;20352;-83
2021/10/26 14:29:55;;;;;;;;;;;15.10;99.90;;;;;;4997222;28;19937;-81